NCAR-RAP Real-Time Weather Data

Output produced by METARs form (12 May 2021  10:50 UTC)
found at http://weather.rap.ucar.edu/surface/
 
KIEN 120952Z AUTO 00000KT 10SM CLR 01/M01 A3027 RMK AO2 SLP258 T00111011
KIEN 120852Z AUTO 00000KT 10SM CLR 02/M01 A3028 RMK AO2 SLP257 T00221006 58006
KIEN 120752Z AUTO 00000KT 10SM CLR 02/M01 A3029 RMK AO2 SLP263 T00171006
KIEN 120652Z AUTO 00000KT 10SM CLR 02/M01 A3030 RMK AO2 SLP267 T00221011 401561017
KIEN 120552Z AUTO 00000KT 10SM CLR 05/00 A3030 RMK AO2 SLP264 T00500000 10150 20050 50006
KIEN 120452Z AUTO 21005KT 10SM FEW080 06/00 A3030 RMK AO2 SLP262 T00560000
KIEN 120352Z AUTO 21006KT 10SM OVC080 08/00 A3030 RMK AO2 SLP260 T00830000
KIEN 120252Z AUTO 17005KT 10SM SCT075 OVC090 09/M02 A3028 RMK AO2 SLP253 T00891017 53010
KIEN 120152Z AUTO 17007KT 10SM BKN075 12/M03 A3026 RMK AO2 SLP246 T01171028
KIEN 120052Z AUTO 15006KT 10SM FEW090 13/M02 A3025 RMK AO2 SLP246 T01331022
KIEN 112352Z AUTO 10004KT 10SM SCT070 OVC085 14/M03 A3024 RMK AO2 SLP250 T01441033 10156 20122 55001
KIEN 112252Z AUTO 14005KT 10SM BKN075 OVC090 14/M04 A3024 RMK AO2 SLP250 T01441039
KIEN 112152Z AUTO 12006KT 10SM OVC075 14/M04 A3024 RMK AO2 SLP248 T01441039
KIEN 112052Z AUTO 00000KT 10SM OVC075 14/M03 A3025 RMK AO2 SLP249 T01391033 56008